Time;durP1;ratioP1;P1;durP2;ratioP2;P2;SDS_P1;SDS_P2;PMS_P1;PMS_P2;Temp;Humidity;BMP_temperature;BMP_pressure;BME280_temperature;BME280_humidity;BME280_pressure;Samples;Min_cycle;Max_cycle;Signal;HPM_P1;HPM_P2
2023/12/06 00:02:12;;;;;;;43.22;33.13;;;;;;;4.14;76.94;100976.00;5084756;28;20031;-62
2023/12/06 00:04:37;;;;;;;44.78;32.85;;;;;;;4.13;77.53;100982.56;5079675;28;20024;-63
2023/12/06 00:07:03;;;;;;;44.95;32.83;;;;;;;4.15;77.02;100974.09;5087987;28;20639;-63
2023/12/06 00:09:28;;;;;;;45.60;32.28;;;;;;;4.17;77.19;100977.50;5086173;28;20058;-63
2023/12/06 00:11:53;;;;;;;46.20;32.78;;;;;;;4.06;77.67;100976.19;5077672;28;20033;-64
2023/12/06 00:14:19;;;;;;;44.45;32.17;;;;;;;4.06;77.55;100981.69;5079002;28;20089;-63
2023/12/06 00:16:44;;;;;;;45.92;32.88;;;;;;;4.04;77.70;100980.19;5080532;28;20026;-64
2023/12/06 00:19:12;;;;;;;47.47;33.58;;;;;;;4.11;77.54;100987.38;5084079;28;20035;-64
2023/12/06 00:21:37;;;;;;;46.47;34.10;;;;;;;4.13;77.31;100985.28;5085187;28;20024;-64
2023/12/06 00:24:04;;;;;;;48.17;33.67;;;;;;;4.16;77.45;100986.75;5082557;28;20031;-64
2023/12/06 00:26:30;;;;;;;43.85;32.15;;;;;;;4.21;77.39;100995.25;5080456;28;20016;-63
2023/12/06 00:28:55;;;;;;;44.97;32.97;;;;;;;4.23;77.33;100992.28;5081020;28;20151;-63
2023/12/06 00:31:20;;;;;;;47.92;33.95;;;;;;;4.24;77.35;100996.72;5079674;28;20069;-64
2023/12/06 00:34:04;;;;;;;46.05;32.42;;;;;;;4.28;77.48;100998.81;5078398;28;20064;-64
2023/12/06 00:36:29;;;;;;;48.30;33.30;;;;;;;4.26;77.59;100998.22;5084278;28;20090;-64
2023/12/06 00:38:54;;;;;;;47.30;33.67;;;;;;;4.24;77.27;101003.06;5079806;28;20020;-64
2023/12/06 00:41:24;;;;;;;44.28;32.05;;;;;;;4.25;77.39;101009.41;5080765;28;20438;-63
2023/12/06 00:43:53;;;;;;;44.00;33.00;;;;;;;4.23;77.49;101006.84;5083568;28;20101;-63
2023/12/06 00:46:19;;;;;;;44.67;32.83;;;;;;;4.23;77.69;101006.00;5077924;28;20390;-63
2023/12/06 00:48:44;;;;;;;44.85;32.13;;;;;;;4.25;77.43;101010.25;5084890;28;20037;-63
2023/12/06 00:51:09;;;;;;;45.30;32.33;;;;;;;4.26;77.49;101022.09;5079564;28;20041;-63
2023/12/06 00:53:35;;;;;;;42.88;31.25;;;;;;;4.30;77.64;101020.63;5083626;28;20086;-63
2023/12/06 00:56:00;;;;;;;43.65;31.23;;;;;;;4.27;77.32;101027.38;5081254;28;20106;-64
2023/12/06 00:58:26;;;;;;;42.30;31.38;;;;;;;4.30;77.17;101021.47;5080068;28;20016;-63
2023/12/06 01:00:54;;;;;;;40.58;30.35;;;;;;;4.31;77.33;101033.31;5082934;28;20028;-64
2023/12/06 01:03:19;;;;;;;42.45;31.42;;;;;;;4.29;77.60;101036.28;5080970;28;20032;-63
2023/12/06 01:05:44;;;;;;;42.15;30.77;;;;;;;4.32;77.49;101034.97;5081049;28;20032;-63
2023/12/06 01:08:13;;;;;;;41.13;31.23;;;;;;;4.33;77.28;101042.19;5083039;28;20410;-63
2023/12/06 01:10:42;;;;;;;42.67;30.58;;;;;;;4.31;77.23;101045.13;5080846;28;20036;-63
2023/12/06 01:13:08;;;;;;;39.72;29.83;;;;;;;4.30;77.44;101042.59;5075256;28;20039;-64
2023/12/06 01:15:33;;;;;;;37.50;29.05;;;;;;;4.31;77.24;101042.38;5082391;28;20111;-64
2023/12/06 01:17:59;;;;;;;39.67;29.08;;;;;;;4.31;77.41;101044.28;5081318;28;20028;-64
2023/12/06 01:20:26;;;;;;;36.03;28.00;;;;;;;4.31;77.34;101038.78;5084094;28;20031;-64
2023/12/06 01:22:52;;;;;;;35.03;27.67;;;;;;;4.33;77.68;101045.78;5083903;28;20042;-64
2023/12/06 01:25:17;;;;;;;37.33;28.55;;;;;;;4.34;77.65;101055.72;5083591;28;20032;-63
2023/12/06 01:27:45;;;;;;;35.03;27.33;;;;;;;4.33;77.41;101058.69;5080352;28;20037;-63
2023/12/06 01:30:11;;;;;;;35.67;27.50;;;;;;;4.35;77.39;101059.31;5082771;28;20055;-63
2023/12/06 01:32:36;;;;;;;36.00;26.75;;;;;;;4.34;77.40;101060.38;5083157;28;20492;-64
2023/12/06 01:35:02;;;;;;;35.33;26.40;;;;;;;4.34;77.46;101063.97;5079444;28;20027;-63
2023/12/06 01:37:27;;;;;;;37.33;28.08;;;;;;;4.36;77.43;101059.13;5079185;28;20051;-63
2023/12/06 01:39:52;;;;;;;34.53;26.77;;;;;;;4.34;77.38;101076.84;5079882;28;20035;-63
2023/12/06 01:42:17;;;;;;;34.53;26.85;;;;;;;4.33;77.20;101076.00;5082905;28;20123;-64
2023/12/06 01:44:43;;;;;;;34.10;26.17;;;;;;;4.34;77.25;101076.84;5079634;28;20504;-64
2023/12/06 01:47:09;;;;;;;33.85;25.95;;;;;;;4.34;77.33;101077.69;5079861;28;20040;-63
2023/12/06 01:49:35;;;;;;;34.63;27.25;;;;;;;4.33;77.35;101084.25;5082183;28;20028;-64
2023/12/06 01:52:00;;;;;;;36.30;27.58;;;;;;;4.34;77.49;101085.09;5081203;28;20379;-63
2023/12/06 01:54:26;;;;;;;34.90;26.55;;;;;;;4.36;77.73;101085.72;5078149;28;20150;-63
2023/12/06 01:56:53;;;;;;;34.28;26.10;;;;;;;4.35;77.45;101084.88;5077874;28;20103;-63
2023/12/06 01:59:19;;;;;;;32.60;25.52;;;;;;;4.34;77.35;101088.69;5078759;28;20779;-64
2023/12/06 02:01:44;;;;;;;31.92;25.60;;;;;;;4.33;77.66;101086.16;5083044;28;20031;-63
2023/12/06 02:04:09;;;;;;;34.70;25.85;;;;;;;4.34;77.60;101083.19;5082759;28;20109;-64
2023/12/06 02:06:35;;;;;;;32.28;26.15;;;;;;;4.36;77.73;101088.47;5076986;28;20483;-64
2023/12/06 02:09:05;;;;;;;33.05;26.00;;;;;;;4.36;77.89;101097.59;5078330;28;20029;-63
2023/12/06 02:11:30;;;;;;;32.88;25.13;;;;;;;4.34;77.38;101099.69;5077536;28;20024;-63
2023/12/06 02:13:56;;;;;;;32.05;25.13;;;;;;;4.37;77.45;101098.44;5078600;28;20496;-63
2023/12/06 02:16:21;;;;;;;28.92;24.20;;;;;;;4.36;77.42;101103.09;5087281;28;20141;-63
2023/12/06 02:18:47;;;;;;;28.15;23.50;;;;;;;4.39;77.74;101113.66;5080356;28;20365;-63
2023/12/06 02:21:13;;;;;;;27.95;23.25;;;;;;;4.37;77.50;101112.19;5081819;28;20024;-64
2023/12/06 02:23:41;;;;;;;28.17;22.63;;;;;;;4.37;77.48;101110.28;5079782;28;20119;-63
2023/12/06 02:26:06;;;;;;;25.83;21.33;;;;;;;4.37;77.40;101103.94;5080695;28;20031;-64
2023/12/06 02:28:32;;;;;;;28.33;22.45;;;;;;;4.40;77.73;101098.88;5079631;28;20491;-64
2023/12/06 02:30:57;;;;;;;27.48;22.10;;;;;;;4.40;77.55;101100.75;5081457;28;20020;-63
2023/12/06 02:33:24;;;;;;;26.63;22.40;;;;;;;4.40;77.60;101103.50;5074404;28;20036;-63
2023/12/06 02:35:53;;;;;;;26.48;21.67;;;;;;;4.38;77.57;101111.13;5080007;28;20539;-63
2023/12/06 02:38:19;;;;;;;29.10;22.25;;;;;;;4.41;77.73;101106.06;5082099;28;20916;-64
2023/12/06 02:40:46;;;;;;;26.23;21.70;;;;;;;4.40;77.71;101109.00;5079746;28;20044;-63
2023/12/06 02:43:13;;;;;;;24.75;20.95;;;;;;;4.40;77.67;101109.00;5076331;28;20433;-64
2023/12/06 02:45:38;;;;;;;24.33;20.55;;;;;;;4.38;77.41;101102.88;5078893;28;20527;-63
2023/12/06 02:48:04;;;;;;;24.67;19.95;;;;;;;4.40;77.74;101098.00;5083758;28;20133;-63
2023/12/06 02:50:30;;;;;;;23.25;19.98;;;;;;;4.38;77.85;101094.63;5079272;28;20742;-63
2023/12/06 02:52:55;;;;;;;22.70;19.02;;;;;;;4.41;77.59;101103.31;5077201;28;20070;-64
2023/12/06 02:55:20;;;;;;;23.95;19.80;;;;;;;4.38;77.73;101105.63;5079954;28;20402;-63
2023/12/06 02:57:46;;;;;;;23.77;19.75;;;;;;;4.41;77.84;101110.72;5078484;28;20040;-63
2023/12/06 03:00:11;;;;;;;22.48;19.67;;;;;;;4.39;78.02;101110.06;5078365;28;20058;-63
2023/12/06 03:02:36;;;;;;;23.17;18.95;;;;;;;4.39;77.93;101121.88;5075153;28;20047;-63
2023/12/06 03:05:02;;;;;;;24.52;19.30;;;;;;;4.43;77.68;101119.59;5079646;28;20085;-63
2023/12/06 03:07:27;;;;;;;21.60;19.08;;;;;;;4.45;77.91;101116.66;5080795;28;20463;-64
2023/12/06 03:09:53;;;;;;;22.45;19.20;;;;;;;4.46;77.93;101107.34;5079388;28;20430;-63
2023/12/06 03:12:18;;;;;;;23.63;18.85;;;;;;;4.48;77.78;101106.09;5076675;28;20445;-63
2023/12/06 03:14:43;;;;;;;23.50;19.30;;;;;;;4.44;77.78;101093.78;5079761;28;20139;-63
2023/12/06 03:17:09;;;;;;;21.70;18.70;;;;;;;4.48;77.72;101096.97;5074574;28;20484;-63
2023/12/06 03:19:34;;;;;;;22.17;18.42;;;;;;;4.45;77.70;101103.75;5075644;28;20499;-63
2023/12/06 03:22:00;;;;;;;23.33;19.15;;;;;;;4.46;77.97;101110.94;5079633;28;20028;-63
2023/12/06 03:24:25;;;;;;;25.52;18.77;;;;;;;4.47;78.08;101120.03;5079709;28;20066;-63
2023/12/06 03:26:51;;;;;;;23.35;18.95;;;;;;;4.49;78.07;101117.94;5079937;28;20043;-63
2023/12/06 03:29:16;;;;;;;20.42;18.23;;;;;;;4.48;78.48;101121.72;5072952;28;20084;-63
2023/12/06 03:31:44;;;;;;;22.15;19.70;;;;;;;4.48;78.12;101125.31;5080656;28;20078;-63
2023/12/06 03:34:09;;;;;;;23.60;18.33;;;;;;;4.49;78.19;101135.25;5074831;28;20045;-64
2023/12/06 03:36:41;;;;;;;20.13;17.55;;;;;;;4.51;78.27;101133.13;5078241;28;20777;-62
2023/12/06 03:39:06;;;;;;;21.75;18.75;;;;;;;4.53;78.29;101135.69;5080481;28;20029;-64
2023/12/06 03:41:32;;;;;;;22.27;17.42;;;;;;;4.51;78.12;101133.13;5080062;28;20488;-63
2023/12/06 03:43:57;;;;;;;21.30;18.08;;;;;;;4.54;78.18;101137.38;5078294;28;20037;-63
2023/12/06 03:46:22;;;;;;;19.75;17.65;;;;;;;4.54;77.86;101129.13;5079910;28;20035;-62
2023/12/06 03:48:48;;;;;;;22.65;18.33;;;;;;;4.53;77.92;101142.03;5074694;28;20021;-63
2023/12/06 03:51:13;;;;;;;22.95;18.50;;;;;;;4.55;77.86;101139.91;5076424;28;20059;-63
2023/12/06 03:53:38;;;;;;;21.40;18.52;;;;;;;4.56;78.07;101143.50;5083901;28;20028;-63
2023/12/06 03:56:04;;;;;;;20.48;17.75;;;;;;;4.57;78.35;101143.31;5077376;28;20114;-63
2023/12/06 03:58:30;;;;;;;22.73;18.52;;;;;;;4.57;77.70;101147.97;5077611;28;20106;-63
2023/12/06 04:00:56;;;;;;;20.58;18.38;;;;;;;4.56;78.31;101152.63;5078122;28;20427;-63
2023/12/06 04:03:21;;;;;;;18.88;16.88;;;;;;;4.56;78.38;101144.38;5076148;28;20048;-63
2023/12/06 04:05:52;;;;;;;21.23;17.67;;;;;;;4.57;78.47;101143.31;5076948;28;20055;-63
2023/12/06 04:08:18;;;;;;;21.27;17.55;;;;;;;4.55;78.40;101145.41;5077453;28;20097;-63
2023/12/06 04:10:43;;;;;;;21.08;18.42;;;;;;;4.55;78.55;101148.16;5077115;28;20020;-63
2023/12/06 04:13:11;;;;;;;19.80;17.38;;;;;;;4.56;78.68;101152.63;5077549;28;20500;-63
2023/12/06 04:15:36;;;;;;;22.30;17.88;;;;;;;4.56;78.54;101158.13;5075787;28;20079;-63
2023/12/06 04:18:04;;;;;;;19.95;17.55;;;;;;;4.58;78.52;101149.66;5076431;28;20048;-63
2023/12/06 04:20:29;;;;;;;20.13;17.85;;;;;;;4.58;78.81;101150.50;5078985;28;20375;-64
2023/12/06 04:22:55;;;;;;;22.30;17.55;;;;;;;4.60;78.73;101158.56;5079730;28;20028;-63
2023/12/06 04:25:21;;;;;;;23.50;17.92;;;;;;;4.59;78.69;101163.19;5079964;28;20039;-64
2023/12/06 04:27:46;;;;;;;20.88;17.48;;;;;;;4.61;79.09;101165.75;5082748;28;20016;-63
2023/12/06 04:30:14;;;;;;;21.27;17.95;;;;;;;4.61;78.87;101172.09;5083796;28;20028;-64
2023/12/06 04:32:39;;;;;;;21.40;18.38;;;;;;;4.60;78.92;101167.66;5082902;28;20068;-63
2023/12/06 04:35:05;;;;;;;20.33;17.73;;;;;;;4.63;78.94;101169.13;5084836;28;20068;-63
2023/12/06 04:37:31;;;;;;;22.25;18.83;;;;;;;4.62;78.62;101165.53;5082381;28;20039;-63
2023/12/06 04:39:56;;;;;;;20.33;18.13;;;;;;;4.63;79.13;101175.47;5080233;28;20118;-63
2023/12/06 04:42:21;;;;;;;22.65;19.05;;;;;;;4.62;79.26;101179.28;5082810;28;20131;-64
2023/12/06 04:44:46;;;;;;;23.55;18.90;;;;;;;4.65;79.09;101172.53;5082180;28;20130;-63
2023/12/06 04:47:12;;;;;;;24.60;19.42;;;;;;;4.65;79.42;101180.78;5083124;28;20025;-64
2023/12/06 04:49:37;;;;;;;24.33;19.90;;;;;;;4.67;79.40;101181.41;5082389;28;20430;-63
2023/12/06 04:52:03;;;;;;;22.92;18.50;;;;;;;4.68;79.30;101172.97;5080584;28;20031;-65
2023/12/06 04:54:28;;;;;;;24.08;19.35;;;;;;;4.67;79.41;101182.25;5080200;28;20028;-63
2023/12/06 04:56:57;;;;;;;23.60;19.13;;;;;;;4.67;79.48;101185.00;5079630;28;20032;-64
2023/12/06 04:59:22;;;;;;;24.05;18.90;;;;;;;4.64;79.51;101177.19;5082055;28;20463;-64
2023/12/06 05:01:47;;;;;;;22.58;19.33;;;;;;;4.67;79.46;101186.91;5080079;28;20037;-64
2023/12/06 05:04:14;;;;;;;23.33;19.45;;;;;;;4.67;79.53;101190.50;5079455;28;20040;-64
2023/12/06 05:06:40;;;;;;;23.27;19.55;;;;;;;4.68;79.76;101189.47;5081557;28;20043;-64
2023/12/06 05:09:07;;;;;;;25.40;20.20;;;;;;;4.69;79.59;101195.81;5078856;28;20395;-64
2023/12/06 05:11:32;;;;;;;26.08;20.08;;;;;;;4.70;79.90;101199.41;5077872;28;20024;-64
2023/12/06 05:13:58;;;;;;;23.52;20.20;;;;;;;4.71;79.62;101206.59;5078954;28;20035;-65
2023/12/06 05:16:24;;;;;;;22.95;20.25;;;;;;;4.71;80.30;101209.34;5080396;28;20024;-64
2023/12/06 05:18:49;;;;;;;24.15;20.48;;;;;;;4.68;80.19;101200.47;5081913;28;20029;-64
2023/12/06 05:21:15;;;;;;;25.48;20.05;;;;;;;4.71;80.03;101199.19;5081337;28;20376;-65
2023/12/06 05:23:43;;;;;;;23.88;20.17;;;;;;;4.70;80.28;101204.91;5082878;28;20461;-64
2023/12/06 05:26:08;;;;;;;26.20;21.05;;;;;;;4.73;80.12;101207.25;5084382;28;20115;-64
2023/12/06 05:28:34;;;;;;;27.02;20.95;;;;;;;4.74;80.22;101211.69;5078257;28;20197;-64
2023/12/06 05:30:59;;;;;;;25.52;20.20;;;;;;;4.74;80.34;101211.69;5081100;28;20047;-64
2023/12/06 05:33:25;;;;;;;25.63;20.75;;;;;;;4.73;80.57;101210.84;5082573;28;20048;-64
2023/12/06 05:35:50;;;;;;;28.33;20.27;;;;;;;4.74;80.34;101211.69;5080589;28;20074;-64
2023/12/06 05:38:15;;;;;;;23.38;19.60;;;;;;;4.75;80.37;101213.38;5079208;28;20033;-64
2023/12/06 05:40:41;;;;;;;26.73;20.20;;;;;;;4.77;80.41;101216.78;5079370;28;20033;-64
2023/12/06 05:43:07;;;;;;;28.60;20.95;;;;;;;4.76;80.60;101212.34;5080634;28;20379;-65
2023/12/06 05:45:32;;;;;;;24.83;20.45;;;;;;;4.79;80.78;101217.41;5081040;28;20028;-64
2023/12/06 05:48:00;;;;;;;24.58;21.05;;;;;;;4.79;81.02;101217.41;5079202;28;20085;-64
2023/12/06 05:50:25;;;;;;;25.38;20.48;;;;;;;4.80;80.35;101224.63;5081691;28;20033;-64
2023/12/06 05:52:51;;;;;;;25.88;21.92;;;;;;;4.78;81.25;101230.31;5078571;28;20373;-64
2023/12/06 05:55:16;;;;;;;26.05;21.00;;;;;;;4.79;80.73;101228.41;5077371;28;20037;-65
2023/12/06 05:57:42;;;;;;;27.75;22.27;;;;;;;4.81;81.05;101231.81;5078598;28;20477;-65
2023/12/06 06:00:12;;;;;;;28.80;22.15;;;;;;;4.81;81.25;101226.31;5081858;28;20051;-64
2023/12/06 06:02:41;;;;;;;26.48;21.48;;;;;;;4.82;81.15;101237.09;5076216;28;20024;-65
2023/12/06 06:05:08;;;;;;;26.58;20.58;;;;;;;4.83;81.19;101244.28;5078839;28;20068;-64
2023/12/06 06:07:33;;;;;;;25.10;20.55;;;;;;;4.84;81.44;101239.66;5079949;28;20057;-64
2023/12/06 06:10:02;;;;;;;24.08;20.38;;;;;;;4.85;80.88;101238.59;5077976;28;20371;-64
2023/12/06 06:12:27;;;;;;;24.33;21.27;;;;;;;4.84;81.26;101242.41;5081858;28;20027;-63
2023/12/06 06:14:55;;;;;;;23.48;19.67;;;;;;;4.86;81.15;101235.63;5079970;28;20035;-64
2023/12/06 06:17:22;;;;;;;27.63;20.73;;;;;;;4.86;81.41;101243.88;5074243;28;20403;-64
2023/12/06 06:19:47;;;;;;;26.73;19.95;;;;;;;4.86;81.63;101232.88;5076279;28;20021;-64
2023/12/06 06:22:12;;;;;;;24.80;19.98;;;;;;;4.87;81.43;101248.34;5079705;28;20016;-64
2023/12/06 06:24:37;;;;;;;26.35;20.25;;;;;;;4.87;82.01;101244.72;5074529;28;20559;-64
2023/12/06 06:27:03;;;;;;;21.85;19.33;;;;;;;4.88;81.92;101251.94;5086211;28;20037;-64
2023/12/06 06:29:28;;;;;;;23.83;19.45;;;;;;;4.87;81.92;101250.22;5079445;28;20060;-64
2023/12/06 06:31:56;;;;;;;22.75;18.80;;;;;;;4.86;81.34;101265.03;5080436;28;20046;-63
2023/12/06 06:34:21;;;;;;;21.75;18.45;;;;;;;4.91;81.60;101266.13;5078017;28;20114;-64
2023/12/06 06:36:47;;;;;;;23.00;18.80;;;;;;;4.90;81.69;101266.31;5081189;28;20464;-63
2023/12/06 06:39:12;;;;;;;24.08;18.88;;;;;;;4.92;81.63;101272.47;5080107;28;20028;-62
2023/12/06 06:41:38;;;;;;;23.38;18.60;;;;;;;4.92;81.71;101273.31;5078877;28;20024;-62
2023/12/06 06:44:04;;;;;;;22.90;18.13;;;;;;;4.93;81.51;101274.16;5078613;28;20085;-62
2023/12/06 06:46:29;;;;;;;23.77;18.23;;;;;;;4.93;81.49;101275.00;5078798;28;20068;-63
2023/12/06 06:48:54;;;;;;;21.73;18.15;;;;;;;4.93;81.33;101275.00;5081352;28;20038;-63
2023/12/06 06:51:29;;;;;;;20.38;17.17;;;;;;;4.94;81.62;101275.88;5078740;28;20028;-63
2023/12/06 06:53:55;;;;;;;22.75;18.27;;;;;;;4.92;81.75;101278.00;5076320;28;20029;-64
2023/12/06 06:56:20;;;;;;;25.27;17.70;;;;;;;4.93;81.49;101276.91;5078611;28;20028;-64
2023/12/06 06:58:45;;;;;;;22.25;17.02;;;;;;;4.95;81.40;101282.22;5079902;28;20090;-64
2023/12/06 07:01:10;;;;;;;22.38;17.90;;;;;;;4.95;81.50;101288.56;5074615;28;20039;-64
2023/12/06 07:03:36;;;;;;;20.67;17.50;;;;;;;4.95;81.48;101291.31;5072835;28;20460;-63
2023/12/06 07:06:02;;;;;;;20.52;16.27;;;;;;;4.97;81.37;101288.38;5075662;28;20032;-65
2023/12/06 07:08:30;;;;;;;21.60;16.63;;;;;;;4.97;81.69;101296.63;5080857;28;20081;-63
2023/12/06 07:10:56;;;;;;;22.63;17.80;;;;;;;4.97;81.53;101291.97;5074690;28;20035;-63
2023/12/06 07:13:22;;;;;;;22.27;17.05;;;;;;;4.98;81.78;101290.91;5075338;28;20056;-63
2023/12/06 07:15:47;;;;;;;24.88;18.55;;;;;;;4.99;82.01;101289.00;5079013;28;20047;-63
2023/12/06 07:18:13;;;;;;;22.48;18.00;;;;;;;5.00;81.65;101290.72;5071990;28;20032;-64
2023/12/06 07:20:38;;;;;;;24.48;18.10;;;;;;;5.00;81.90;101297.06;5079195;28;20028;-63
2023/12/06 07:23:04;;;;;;;22.98;17.80;;;;;;;4.98;81.65;101299.16;5076390;28;20032;-64
2023/12/06 07:25:29;;;;;;;21.67;16.65;;;;;;;5.01;81.52;101298.75;5073900;28;20024;-63
2023/12/06 07:27:55;;;;;;;21.50;17.88;;;;;;;5.01;81.20;101293.25;5075023;28;20039;-63
2023/12/06 07:30:20;;;;;;;25.40;18.13;;;;;;;5.00;81.58;101305.31;5073105;28;20019;-64
2023/12/06 07:32:54;;;;;;;22.48;17.42;;;;;;;5.02;81.33;101300.44;5080679;28;20044;-64
2023/12/06 07:35:20;;;;;;;23.48;17.88;;;;;;;5.02;81.37;101299.59;5079032;28;20065;-64
2023/12/06 07:37:45;;;;;;;25.67;18.75;;;;;;;5.04;81.33;101314.84;5081178;28;20035;-63
2023/12/06 07:40:11;;;;;;;21.48;17.70;;;;;;;5.03;81.65;101315.91;5079120;28;20043;-63
2023/12/06 07:42:37;;;;;;;23.33;17.83;;;;;;;5.01;80.81;101318.00;5078973;28;20067;-63
2023/12/06 07:45:02;;;;;;;24.63;19.05;;;;;;;5.00;80.98;101318.22;5079651;28;20116;-63
2023/12/06 07:47:29;;;;;;;20.63;17.15;;;;;;;5.00;80.61;101323.72;5075023;28;20114;-61
2023/12/06 07:49:54;;;;;;;23.05;17.65;;;;;;;4.97;80.65;101330.47;5080260;28;20396;-61
2023/12/06 07:52:19;;;;;;;22.88;18.75;;;;;;;4.94;80.58;101317.13;5084045;28;20024;-62
2023/12/06 07:54:46;;;;;;;22.48;19.13;;;;;;;4.94;80.84;101325.38;5089868;28;20028;-63
2023/12/06 07:57:12;;;;;;;24.20;19.40;;;;;;;4.93;80.68;101323.69;5089926;28;20036;-63
2023/12/06 07:59:38;;;;;;;24.50;18.98;;;;;;;4.91;80.24;101320.28;5092599;28;20024;-63
2023/12/06 08:02:03;;;;;;;24.20;19.33;;;;;;;4.89;80.58;101330.66;5092150;28;20039;-62
2023/12/06 08:04:32;;;;;;;26.98;19.02;;;;;;;4.90;80.85;101333.19;5091291;28;20036;-63
2023/12/06 08:06:57;;;;;;;22.92;18.58;;;;;;;4.90;80.37;101338.69;5079587;28;20024;-63
2023/12/06 08:09:23;;;;;;;24.73;18.92;;;;;;;4.89;80.34;101338.91;5072845;28;20051;-60
2023/12/06 08:11:48;;;;;;;24.70;19.25;;;;;;;4.87;80.38;101335.50;5079612;28;20012;-65
2023/12/06 08:14:14;;;;;;;26.60;19.35;;;;;;;4.87;80.26;101341.88;5078065;28;20462;-62
2023/12/06 08:16:39;;;;;;;23.88;19.45;;;;;;;4.88;80.31;101348.22;5072422;28;20111;-63
2023/12/06 08:19:08;;;;;;;21.15;18.52;;;;;;;4.87;80.58;101343.75;5074454;28;20148;-64
2023/12/06 08:21:33;;;;;;;23.20;19.20;;;;;;;4.86;80.39;101353.91;5077392;28;20031;-63
2023/12/06 08:23:58;;;;;;;24.73;19.27;;;;;;;4.86;80.26;101350.31;5092757;28;20036;-63
2023/12/06 08:26:24;;;;;;;22.60;19.25;;;;;;;4.85;79.95;101348.63;5093161;28;20479;-63
2023/12/06 08:28:49;;;;;;;26.25;19.73;;;;;;;4.86;80.27;101351.16;5083581;28;20098;-64
2023/12/06 08:31:14;;;;;;;21.52;18.65;;;;;;;4.86;80.53;101356.66;5085191;28;20116;-64
2023/12/06 08:33:40;;;;;;;27.52;19.40;;;;;;;4.89;80.24;101366.41;5093523;28;20044;-63
2023/12/06 08:36:05;;;;;;;27.67;20.20;;;;;;;4.88;80.17;101359.22;5082436;28;20093;-63
2023/12/06 08:38:32;;;;;;;27.10;20.23;;;;;;;4.90;80.11;101352.44;5085244;28;20198;-63
2023/12/06 08:40:57;;;;;;;24.70;21.05;;;;;;;4.93;80.62;101363.03;5087920;28;20522;-63
2023/12/06 08:43:23;;;;;;;26.45;19.50;;;;;;;4.96;79.78;101366.44;5093327;28;20093;-63
2023/12/06 08:45:48;;;;;;;24.25;18.95;;;;;;;4.98;80.26;101362.44;5092335;28;20027;-63
2023/12/06 08:48:13;;;;;;;25.33;18.63;;;;;;;4.95;80.34;101376.59;5086082;28;20056;-63
2023/12/06 08:50:39;;;;;;;22.92;18.75;;;;;;;4.98;79.77;101376.19;5086267;28;20074;-63
2023/12/06 08:53:04;;;;;;;23.30;19.27;;;;;;;4.97;80.30;101382.75;5092484;28;20051;-64
2023/12/06 08:55:29;;;;;;;22.23;19.50;;;;;;;4.99;80.17;101388.91;5091895;28;20407;-63
2023/12/06 08:57:55;;;;;;;26.67;19.17;;;;;;;4.99;79.77;101396.28;5093571;28;20024;-63
2023/12/06 09:00:21;;;;;;;21.25;17.90;;;;;;;5.00;79.61;101396.09;5091306;28;20032;-63
2023/12/06 09:02:46;;;;;;;21.98;19.10;;;;;;;5.01;79.87;101400.53;5092534;28;20063;-63
2023/12/06 09:05:14;;;;;;;24.60;19.00;;;;;;;5.00;80.03;101396.09;5092286;28;20032;-63
2023/12/06 09:07:40;;;;;;;23.20;18.95;;;;;;;5.02;80.00;101404.97;5084728;28;20073;-63
2023/12/06 09:10:08;;;;;;;21.77;17.20;;;;;;;5.03;79.92;101403.06;5092623;28;20031;-63
2023/12/06 09:12:33;;;;;;;27.38;18.50;;;;;;;5.05;80.00;101401.00;5091977;28;20028;-63
2023/12/06 09:14:58;;;;;;;24.95;18.50;;;;;;;5.07;80.08;101408.00;5091140;28;20085;-63
2023/12/06 09:17:24;;;;;;;24.20;17.83;;;;;;;5.08;80.47;101412.44;5093071;28;20065;-63
2023/12/06 09:19:51;;;;;;;22.27;18.05;;;;;;;5.13;80.46;101401.66;5091407;28;20069;-63
2023/12/06 09:22:17;;;;;;;25.92;18.25;;;;;;;5.16;79.93;101405.91;5092597;28;20161;-63
2023/12/06 09:24:43;;;;;;;26.27;18.95;;;;;;;5.18;80.52;101410.16;5087739;28;20085;-63
2023/12/06 09:27:09;;;;;;;28.35;19.67;;;;;;;5.24;80.46;101407.66;5092661;28;20054;-64
2023/12/06 09:29:34;;;;;;;25.48;19.48;;;;;;;5.32;80.49;101412.97;5092795;28;20477;-64
2023/12/06 09:32:00;;;;;;;24.83;18.08;;;;;;;5.41;80.38;101406.22;5093077;28;20032;-64
2023/12/06 09:34:25;;;;;;;22.63;18.15;;;;;;;5.52;80.36;101415.81;5079317;28;20193;-64
2023/12/06 09:36:50;;;;;;;23.33;18.13;;;;;;;5.61;79.37;101418.16;5081111;28;20445;-64
2023/12/06 09:39:16;;;;;;;23.60;18.48;;;;;;;5.66;79.28;101418.41;5092664;28;20035;-64
2023/12/06 09:41:42;;;;;;;21.27;17.00;;;;;;;5.76;79.15;101417.16;5078018;28;20044;-63
2023/12/06 09:44:07;;;;;;;22.98;17.02;;;;;;;5.83;79.45;101424.38;5088131;28;20032;-63
2023/12/06 09:46:33;;;;;;;21.80;17.65;;;;;;;5.95;79.55;101434.84;5080722;28;20109;-64
2023/12/06 09:49:00;;;;;;;20.90;16.75;;;;;;;6.02;78.83;101438.47;5078217;28;20063;-65
2023/12/06 09:51:25;;;;;;;20.45;16.58;;;;;;;6.03;78.59;101437.41;5086724;28;20024;-64
2023/12/06 09:53:51;;;;;;;21.35;16.33;;;;;;;6.03;78.60;101441.00;5074563;28;20043;-63
2023/12/06 09:56:16;;;;;;;22.33;15.43;;;;;;;6.03;78.94;101443.75;5085149;28;20090;-65
2023/12/06 09:58:43;;;;;;;21.48;15.38;;;;;;;6.01;78.04;101443.13;5084524;28;20031;-65
2023/12/06 10:01:09;;;;;;;19.98;15.23;;;;;;;6.02;78.54;101446.72;5080522;28;20108;-64
2023/12/06 10:03:35;;;;;;;20.63;15.20;;;;;;;6.01;78.69;101447.75;5080769;28;20036;-64
2023/12/06 10:06:04;;;;;;;22.13;15.77;;;;;;;6.03;78.17;101449.25;5074887;28;20102;-64
2023/12/06 10:08:35;;;;;;;19.77;15.07;;;;;;;6.05;78.13;101446.28;5079094;28;20024;-65
2023/12/06 10:11:08;;;;;;;19.77;15.07;;;;;;;6.08;78.24;101446.72;5081220;28;20123;-64
2023/12/06 10:13:37;;;;;;;22.30;14.95;;;;;;;6.09;78.32;101451.19;5084364;28;20476;-64
2023/12/06 10:16:15;;;;;;;22.77;14.60;;;;;;;6.12;76.84;101444.41;5076703;28;20119;-65
2023/12/06 10:18:41;;;;;;;21.45;14.07;;;;;;;6.09;77.30;101448.44;5079489;28;20476;-65
2023/12/06 10:21:07;;;;;;;19.50;14.77;;;;;;;6.09;78.27;101445.69;5088892;28;20036;-65
2023/12/06 10:23:35;;;;;;;19.55;14.32;;;;;;;6.09;77.43;101453.06;5075060;28;20078;-65
2023/12/06 10:26:01;;;;;;;20.10;14.20;;;;;;;6.10;77.52;101452.88;5090689;28;20465;-66
2023/12/06 10:28:26;;;;;;;20.35;13.65;;;;;;;6.12;76.91;101450.75;5091238;28;20028;-65
2023/12/06 10:31:04;;;;;;;17.42;14.02;;;;;;;6.17;77.44;101449.28;5079538;28;20175;-64
2023/12/06 10:33:30;;;;;;;23.17;14.85;;;;;;;6.17;77.09;101441.88;5073869;28;20036;-65
2023/12/06 10:36:00;;;;;;;21.80;14.70;;;;;;;6.17;77.13;101449.28;5082359;28;20114;-64
2023/12/06 10:38:28;;;;;;;17.02;13.48;;;;;;;6.17;77.22;101439.13;5089550;28;20063;-65
2023/12/06 10:40:54;;;;;;;19.95;14.48;;;;;;;6.15;76.50;101446.75;5084585;28;20027;-65
2023/12/06 10:43:24;;;;;;;24.95;14.15;;;;;;;6.17;77.01;101443.75;5082462;28;20031;-63
2023/12/06 10:45:51;;;;;;;19.33;13.75;;;;;;;6.14;76.91;101443.13;5090896;28;20077;-63
2023/12/06 10:48:21;;;;;;;19.45;13.90;;;;;;;6.15;77.37;101439.31;5088418;28;20064;-64
2023/12/06 10:50:49;;;;;;;17.05;13.55;;;;;;;6.17;77.29;101438.25;5076749;28;20046;-62
2023/12/06 10:53:17;;;;;;;16.23;13.30;;;;;;;6.16;76.87;101445.69;5090876;28;20020;-63
2023/12/06 10:55:42;;;;;;;22.40;14.18;;;;;;;6.17;76.63;101435.50;5071214;28;20033;-62
2023/12/06 10:58:09;;;;;;;16.10;13.50;;;;;;;6.18;77.05;101439.97;5082824;28;20039;-62
2023/12/06 11:00:34;;;;;;;18.13;12.25;;;;;;;6.18;76.69;101434.47;5084806;28;20043;-62
2023/12/06 11:03:01;;;;;;;20.00;13.10;;;;;;;6.21;76.79;101442.28;5081094;28;20468;-61
2023/12/06 11:05:29;;;;;;;18.42;12.25;;;;;;;6.20;77.17;101440.59;5077732;28;20027;-62
2023/12/06 11:08:03;;;;;;;17.55;12.68;;;;;;;6.23;77.23;101437.44;5080605;28;20045;-63
2023/12/06 11:11:04;;;;;;;21.10;12.60;;;;;;;6.26;77.09;101442.53;5076219;28;20380;-63
2023/12/06 11:14:06;;;;;;;19.05;12.52;;;;;;;6.28;76.61;101443.16;5076765;28;20540;-62